createdAt,value
2022-08-03T00:01:36.290Z,98281.63
2022-08-03T00:04:04.831Z,98270.28
2022-08-03T00:06:36.751Z,98263.81
2022-08-03T00:09:05.655Z,98278.13
2022-08-03T00:11:32.941Z,98276.22
2022-08-03T00:14:00.138Z,98269.19
2022-08-03T00:16:27.270Z,98267.03
2022-08-03T00:18:54.287Z,98265.41
2022-08-03T00:21:21.315Z,98264.56
2022-08-03T00:23:52.313Z,98269.72
2022-08-03T00:26:21.358Z,98261.88
2022-08-03T00:28:49.512Z,98257.28
2022-08-03T00:31:16.895Z,98261.63
2022-08-03T00:33:59.659Z,98256.22
2022-08-03T00:36:30.280Z,98255.13
2022-08-03T00:38:57.287Z,98255.66
2022-08-03T00:41:24.275Z,98253.50
2022-08-03T00:43:51.252Z,98256.19
2022-08-03T00:46:21.604Z,98257.00
2022-08-03T00:48:52.468Z,98256.75
2022-08-03T00:51:21.894Z,98251.88
2022-08-03T00:53:49.960Z,98262.69
2022-08-03T00:56:18.109Z,98257.81
2022-08-03T00:58:46.593Z,98261.59
2022-08-03T01:01:14.905Z,98261.31
2022-08-03T01:03:42.648Z,98251.88
2022-08-03T01:06:36.254Z,98247.00
2022-08-03T01:09:41.675Z,98256.19
2022-08-03T01:12:25.172Z,98258.88
2022-08-03T01:15:15.933Z,98253.22
2022-08-03T01:18:15.161Z,98258.88
2022-08-03T01:20:48.787Z,98250.50
2022-08-03T01:23:28.988Z,98247.00
2022-08-03T01:26:02.259Z,98249.97
2022-08-03T01:29:02.122Z,98241.06
2022-08-03T01:32:53.242Z,98238.38
2022-08-03T01:35:41.488Z,98242.59
2022-08-03T01:38:24.125Z,98246.94
2022-08-03T01:40:54.879Z,98236.66
2022-08-03T01:44:28.126Z,98237.72
2022-08-03T01:46:17.469Z,98231.88
2022-08-03T01:48:46.863Z,98229.66
2022-08-03T01:51:16.043Z,98228.78
2022-08-03T01:53:43.342Z,98232.69
2022-08-03T01:56:11.302Z,98238.81
2022-08-03T01:58:40.848Z,98230.00
2022-08-03T02:01:10.599Z,98231.25
2022-08-03T02:04:00.031Z,98237.16
2022-08-03T02:07:00.008Z,98235.53
2022-08-03T02:09:21.645Z,98221.44
2022-08-03T02:11:51.549Z,98226.56
2022-08-03T02:14:21.360Z,98223.03
2022-08-03T02:16:49.921Z,98213.00
2022-08-03T02:19:18.387Z,98212.91
2022-08-03T02:21:57.112Z,98218.25
2022-08-03T02:24:29.758Z,98217.03
2022-08-03T02:26:57.839Z,98210.28
2022-08-03T02:29:39.847Z,98215.94
2022-08-03T02:32:14.814Z,98222.03
2022-08-03T02:34:47.876Z,98222.56
2022-08-03T02:37:18.569Z,98223.09
2022-08-03T02:39:47.122Z,98218.84
2022-08-03T02:42:16.658Z,98220.97
2022-08-03T02:44:48.812Z,98223.56
2022-08-03T02:47:17.189Z,98226.88
2022-08-03T02:49:50.564Z,98221.44
2022-08-03T02:52:21.878Z,98223.06
2022-08-03T02:54:52.730Z,98221.97
2022-08-03T02:57:21.466Z,98217.13
2022-08-03T02:59:49.037Z,98215.47
2022-08-03T03:02:18.166Z,98215.47
2022-08-03T03:05:51.131Z,98219.38
2022-08-03T03:07:52.149Z,98224.78
2022-08-03T03:10:23.786Z,98211.31
2022-08-03T03:12:53.784Z,98219.13
2022-08-03T03:15:21.475Z,98215.88
2022-08-03T03:17:50.385Z,98214.28
2022-08-03T03:20:29.471Z,98220.72
2022-08-03T03:23:00.583Z,98215.59
2022-08-03T03:25:30.971Z,98222.34
2022-08-03T03:28:02.096Z,98217.47
2022-08-03T03:30:30.057Z,98219.63
2022-08-03T03:32:58.703Z,98218.56
2022-08-03T03:35:27.724Z,98213.13
2022-08-03T03:37:55.266Z,98212.03
2022-08-03T03:40:22.939Z,98219.03
2022-08-03T03:42:50.753Z,98222.25
2022-08-03T03:45:18.930Z,98219.25
2022-08-03T03:47:46.037Z,98215.22
2022-08-03T03:50:15.613Z,98212.81
2022-08-03T03:52:42.612Z,98219.47
2022-08-03T03:55:09.713Z,98216.19
2022-08-03T03:57:36.688Z,98214.06
2022-08-03T04:00:05.955Z,98221.63
2022-08-03T04:02:33.315Z,98211.63
2022-08-03T04:05:18.970Z,98215.16
2022-08-03T04:08:22.651Z,98218.44
2022-08-03T04:11:29.301Z,98220.28
2022-08-03T04:14:13.572Z,98225.88
2022-08-03T04:16:50.764Z,98224.78
2022-08-03T04:19:36.003Z,98223.72
2022-08-03T04:22:10.261Z,98225.03
2022-08-03T04:24:49.573Z,98219.97
2022-08-03T04:27:21.899Z,98220.22
2022-08-03T04:29:53.372Z,98223.47
2022-08-03T04:32:21.017Z,98219.19
2022-08-03T04:34:48.324Z,98225.84
2022-08-03T04:37:27.263Z,98224.28
2022-08-03T04:39:57.897Z,98225.56
2022-08-03T04:42:25.943Z,98226.72
2022-08-03T04:45:00.448Z,98227.88
2022-08-03T04:47:28.751Z,98232.16
2022-08-03T04:49:56.251Z,98227.56
2022-08-03T04:52:23.268Z,98234.53
2022-08-03T04:54:51.203Z,98239.44
2022-08-03T04:57:22.378Z,98240.81
2022-08-03T05:00:02.641Z,98235.69
2022-08-03T05:02:32.326Z,98239.78
2022-08-03T05:05:00.811Z,98239.91
2022-08-03T05:07:35.560Z,98240.19
2022-08-03T05:10:16.140Z,98241.97
2022-08-03T05:12:45.549Z,98244.53
2022-08-03T05:15:13.044Z,98243.44
2022-08-03T05:17:40.594Z,98242.78
2022-08-03T05:20:08.722Z,98248.84
2022-08-03T05:22:35.646Z,98246.06
2022-08-03T05:25:03.120Z,98248.56
2022-08-03T05:27:30.397Z,98250.28
2022-08-03T05:30:31.374Z,98248.28
2022-08-03T05:32:44.365Z,98253.06
2022-08-03T05:36:01.934Z,98247.75
2022-08-03T05:37:58.528Z,98246.22
2022-08-03T05:40:25.666Z,98253.53
2022-08-03T05:42:54.141Z,98249.50
2022-08-03T05:45:25.373Z,98252.06
2022-08-03T05:47:55.226Z,98252.19
2022-08-03T05:50:22.565Z,98247.47
2022-08-03T05:52:49.778Z,98246.13
2022-08-03T05:55:17.028Z,98239.94
2022-08-03T05:57:47.549Z,98245.44
2022-08-03T06:00:17.513Z,98245.13
2022-08-03T06:02:46.111Z,98244.34
2022-08-03T06:05:13.355Z,98246.53
2022-08-03T06:07:40.380Z,98245.28
2022-08-03T06:10:36.858Z,98241.41
2022-08-03T06:12:55.810Z,98249.78
2022-08-03T06:15:25.616Z,98245.66
2022-08-03T06:17:52.833Z,98249.66
2022-08-03T06:20:21.313Z,98250.06
2022-08-03T06:23:00.836Z,98245.81
2022-08-03T06:25:28.895Z,98251.59
2022-08-03T06:27:55.863Z,98252.84
2022-08-03T06:30:22.815Z,98248.50
2022-08-03T06:32:52.029Z,98243.72
2022-08-03T06:35:19.929Z,98246.56
2022-08-03T06:37:49.848Z,98250.78
2022-08-03T06:40:21.694Z,98252.50
2022-08-03T06:42:51.421Z,98248.72
2022-08-03T06:45:18.557Z,98252.41
2022-08-03T06:47:45.570Z,98255.41
2022-08-03T06:50:16.837Z,98256.53
2022-08-03T06:52:45.348Z,98252.50
2022-08-03T06:55:12.352Z,98255.84
2022-08-03T06:57:39.494Z,98255.94
2022-08-03T07:00:12.219Z,98257.28
2022-08-03T07:02:42.672Z,98260.44
2022-08-03T07:05:10.616Z,98262.78
2022-08-03T07:07:38.099Z,98261.63
2022-08-03T07:10:06.221Z,98258.19
2022-08-03T07:12:34.123Z,98255.84
2022-08-03T07:15:03.349Z,98256.03
2022-08-03T07:17:33.051Z,98256.06
2022-08-03T07:20:01.816Z,98249.63
2022-08-03T07:22:28.865Z,98254.03
2022-08-03T07:24:56.432Z,98255.03
2022-08-03T07:27:23.967Z,98256.03
2022-08-03T07:29:50.915Z,98248.38
2022-08-03T07:32:18.275Z,98251.09
2022-08-03T07:34:45.476Z,98250.25
2022-08-03T07:37:12.487Z,98251.91
2022-08-03T07:39:39.418Z,98245.69
2022-08-03T07:42:06.432Z,98245.13
2022-08-03T07:44:33.414Z,98240.88
2022-08-03T07:47:00.553Z,98244.22
2022-08-03T07:49:30.632Z,98237.56
2022-08-03T07:52:16.629Z,98246.91
2022-08-03T07:54:43.933Z,98239.88
2022-08-03T07:57:10.940Z,98235.66
2022-08-03T08:00:01.525Z,98235.13
2022-08-03T08:02:27.102Z,98235.41
2022-08-03T08:04:54.133Z,98226.47
2022-08-03T08:07:21.042Z,98234.31
2022-08-03T08:09:47.979Z,98224.88
2022-08-03T08:12:16.092Z,98228.66
2022-08-03T08:14:45.855Z,98222.72
2022-08-03T08:17:14.264Z,98222.16
2022-08-03T08:19:51.196Z,98219.47
2022-08-03T08:22:30.117Z,98226.22
2022-08-03T08:24:59.338Z,98220.72
2022-08-03T08:27:26.489Z,98220.53
2022-08-03T08:29:56.339Z,98223.22
2022-08-03T08:32:26.321Z,98218.09
2022-08-03T08:34:54.096Z,98220.00
2022-08-03T08:37:21.370Z,98217.69
2022-08-03T08:39:48.496Z,98226.47
2022-08-03T08:42:16.083Z,98212.44
2022-08-03T08:44:43.366Z,98222.69
2022-08-03T08:47:10.458Z,98223.34
2022-08-03T08:49:40.395Z,98217.78
2022-08-03T08:52:25.276Z,98227.03
2022-08-03T08:55:00.206Z,98210.09
2022-08-03T08:57:42.890Z,98214.16
2022-08-03T09:00:15.431Z,98208.84
2022-08-03T09:02:47.066Z,98213.97
2022-08-03T09:05:22.521Z,98214.75
2022-08-03T09:07:59.211Z,98211.22
2022-08-03T09:10:26.143Z,98214.84
2022-08-03T09:12:59.285Z,98217.47
2022-08-03T09:16:22.129Z,98204.28
2022-08-03T09:18:52.271Z,98217.94
2022-08-03T09:21:33.643Z,98218.88
2022-08-03T09:24:06.351Z,98213.25
2022-08-03T09:26:37.434Z,98207.34
2022-08-03T09:29:15.043Z,98211.59
2022-08-03T09:31:45.587Z,98211.53
2022-08-03T09:34:16.394Z,98209.88
2022-08-03T09:36:46.690Z,98205.44
2022-08-03T09:39:41.660Z,98209.16
2022-08-03T09:42:15.596Z,98206.84
2022-08-03T09:44:47.097Z,98209.97
2022-08-03T09:47:17.633Z,98205.97
2022-08-03T09:50:02.294Z,98204.97
2022-08-03T09:52:49.990Z,98202.31
2022-08-03T09:56:34.856Z,98193.59
2022-08-03T09:58:12.740Z,98198.66
2022-08-03T10:01:04.789Z,98203.56
2022-08-03T10:03:36.241Z,98198.28
2022-08-03T10:06:23.171Z,98191.88
2022-08-03T10:09:17.717Z,98181.00
2022-08-03T10:11:47.090Z,98184.22
2022-08-03T10:14:19.616Z,98189.44
2022-08-03T10:16:48.322Z,98180.06
2022-08-03T10:19:16.390Z,98178.03
2022-08-03T10:21:55.785Z,98174.22
2022-08-03T10:24:29.813Z,98169.78
2022-08-03T10:27:24.234Z,98168.06
2022-08-03T10:29:56.484Z,98166.69
2022-08-03T10:32:49.380Z,98171.09
2022-08-03T10:35:21.424Z,98166.66
2022-08-03T10:38:08.722Z,98157.06
2022-08-03T10:40:48.869Z,98150.19
2022-08-03T10:43:27.850Z,98151.22
2022-08-03T10:45:56.833Z,98154.78
2022-08-03T10:48:24.723Z,98144.28
2022-08-03T10:50:52.255Z,98145.41
2022-08-03T10:53:36.587Z,98148.72
2022-08-03T10:56:49.894Z,98146.06
2022-08-03T10:59:10.659Z,98138.88
2022-08-03T11:01:59.131Z,98148.56
2022-08-03T11:04:29.339Z,98140.25
2022-08-03T11:07:23.358Z,98134.03
2022-08-03T11:09:56.256Z,98137.72
2022-08-03T11:12:29.994Z,98142.91
2022-08-03T11:15:08.594Z,98145.78
2022-08-03T11:17:46.548Z,98143.56
2022-08-03T11:20:50.685Z,98141.22
2022-08-03T11:24:04.362Z,98139.22
2022-08-03T11:26:28.230Z,98139.78
2022-08-03T11:29:29.233Z,98135.09
2022-08-03T11:31:56.432Z,98138.63
2022-08-03T11:34:24.825Z,98119.19
2022-08-03T11:37:23.560Z,98119.19
2022-08-03T11:39:54.595Z,98125.69
2022-08-03T11:42:24.666Z,98139.25
2022-08-03T11:44:54.317Z,98130.91
2022-08-03T11:47:23.214Z,98130.16
2022-08-03T11:49:51.815Z,98127.00
2022-08-03T11:52:19.533Z,98125.31
2022-08-03T11:54:56.684Z,98121.69
2022-08-03T11:59:19.290Z,98114.88
2022-08-03T12:00:31.341Z,98114.56
2022-08-03T12:03:02.514Z,98106.06
2022-08-03T12:05:52.205Z,98104.38
2022-08-03T12:08:29.962Z,98101.53
2022-08-03T12:11:00.159Z,98102.81
2022-08-03T12:14:44.982Z,98103.63
2022-08-03T12:16:24.478Z,98098.88
2022-08-03T12:19:05.094Z,98094.72
2022-08-03T12:21:32.861Z,98095.38
2022-08-03T12:24:04.965Z,98093.19
2022-08-03T12:26:58.261Z,98095.75
2022-08-03T12:29:27.472Z,98101.94
2022-08-03T12:31:55.887Z,98099.06
2022-08-03T12:34:23.421Z,98090.94
2022-08-03T12:36:56.589Z,98091.88
2022-08-03T12:39:26.346Z,98095.75
2022-08-03T12:41:55.917Z,98085.22
2022-08-03T12:44:34.848Z,98088.63
2022-08-03T12:47:04.056Z,98087.31
2022-08-03T12:49:50.187Z,98082.38
2022-08-03T12:52:20.477Z,98087.00
2022-08-03T12:54:59.340Z,98078.16
2022-08-03T12:57:26.730Z,98082.66
2022-08-03T12:59:55.881Z,98075.31
2022-08-03T13:02:27.818Z,98067.22
2022-08-03T13:04:55.652Z,98066.22
2022-08-03T13:07:23.378Z,98069.81
2022-08-03T13:09:53.641Z,98067.75
2022-08-03T13:12:26.878Z,98069.22
2022-08-03T13:14:57.639Z,98058.69
2022-08-03T13:17:25.033Z,98069.19
2022-08-03T13:19:52.681Z,98061.16
2022-08-03T13:22:28.966Z,98063.50
2022-08-03T13:24:57.534Z,98064.88
2022-08-03T13:28:03.287Z,98058.69
2022-08-03T13:30:13.234Z,98059.34
2022-08-03T13:32:40.687Z,98048.53
2022-08-03T13:35:09.149Z,98059.06
2022-08-03T13:37:37.379Z,98051.38
2022-08-03T13:40:07.184Z,98054.63
2022-08-03T13:42:35.618Z,98048.53
2022-08-03T13:45:04.784Z,98047.63
2022-08-03T13:47:32.105Z,98045.50
2022-08-03T13:50:02.483Z,98046.47
2022-08-03T13:52:32.413Z,98042.94
2022-08-03T13:55:00.306Z,98043.78
2022-08-03T13:58:05.623Z,98042.19
2022-08-03T14:00:27.657Z,98037.50
2022-08-03T14:03:12.828Z,98044.16
2022-08-03T14:05:43.112Z,98032.97
2022-08-03T14:08:10.698Z,98031.09
2022-08-03T14:10:43.984Z,98025.56
2022-08-03T14:13:16.837Z,98027.38
2022-08-03T14:15:51.253Z,98016.38
2022-08-03T14:18:28.458Z,98017.91
2022-08-03T14:21:01.963Z,98013.97
2022-08-03T14:23:32.979Z,98021.41
2022-08-03T14:26:00.043Z,98021.09
2022-08-03T14:28:27.308Z,98010.44
2022-08-03T14:30:55.965Z,98007.94
2022-08-03T14:33:23.590Z,98018.91
2022-08-03T14:35:52.335Z,98007.72
2022-08-03T14:38:20.102Z,98019.81
2022-08-03T14:40:47.762Z,98016.41
2022-08-03T14:43:18.084Z,98012.72
2022-08-03T14:45:45.418Z,97998.13
2022-08-03T14:50:32.571Z,98009.78
2022-08-03T14:50:59.736Z,98010.53
2022-08-03T14:53:26.794Z,98004.19
2022-08-03T14:55:53.777Z,98008.59
2022-08-03T14:58:28.078Z,97998.97
2022-08-03T15:00:56.323Z,97993.63
2022-08-03T15:03:24.862Z,98000.84
2022-08-03T15:05:54.313Z,97990.69
2022-08-03T15:08:23.150Z,97992.44
2022-08-03T15:10:50.643Z,97982.13
2022-08-03T15:13:18.360Z,97980.38
2022-08-03T15:15:47.759Z,97986.78
2022-08-03T15:18:14.780Z,97982.94
2022-08-03T15:20:46.355Z,97985.84
2022-08-03T15:23:15.096Z,97977.81
2022-08-03T15:26:31.582Z,97982.47
2022-08-03T15:28:31.406Z,97976.19
2022-08-03T15:30:58.626Z,97977.06
2022-08-03T15:33:25.752Z,97969.31
2022-08-03T15:35:53.367Z,97965.72
2022-08-03T15:38:25.883Z,97966.50
2022-08-03T15:40:54.900Z,97961.28
2022-08-03T15:43:23.682Z,97969.75
2022-08-03T15:46:18.903Z,97960.78
2022-08-03T15:48:38.698Z,97960.47
2022-08-03T15:51:06.545Z,97968.75
2022-08-03T15:53:34.489Z,97961.03
2022-08-03T15:56:05.251Z,97968.97
2022-08-03T15:59:11.278Z,97954.75
2022-08-03T16:01:26.166Z,97960.38
2022-08-03T16:03:53.154Z,97957.41
2022-08-03T16:06:34.754Z,97956.97
2022-08-03T16:09:23.742Z,97957.22
2022-08-03T16:11:53.574Z,97953.75
2022-08-03T16:14:34.424Z,97943.84
2022-08-03T16:17:05.416Z,97949.81
2022-08-03T16:19:32.553Z,97948.19
2022-08-03T16:22:00.859Z,97940.88
2022-08-03T16:24:28.385Z,97943.75
2022-08-03T16:26:56.585Z,97940.03
2022-08-03T16:29:24.167Z,97935.72
2022-08-03T16:31:52.563Z,97936.59
2022-08-03T16:34:20.693Z,97935.72
2022-08-03T16:36:47.877Z,97936.59
2022-08-03T16:39:15.052Z,97935.13
2022-08-03T16:41:53.532Z,97930.06
2022-08-03T16:44:30.441Z,97930.06
2022-08-03T16:46:59.237Z,97932.81
2022-08-03T16:49:54.392Z,97930.56
2022-08-03T16:52:13.531Z,97926.81
2022-08-03T16:54:44.394Z,97929.19
2022-08-03T16:57:29.978Z,97926.59
2022-08-03T17:00:09.040Z,97921.19
2022-08-03T17:02:37.059Z,97918.09
2022-08-03T17:05:05.114Z,97919.75
2022-08-03T17:07:32.157Z,97921.38
2022-08-03T17:10:01.016Z,97915.28
2022-08-03T17:12:28.373Z,97927.88
2022-08-03T17:14:57.315Z,97920.91
2022-08-03T17:17:47.534Z,97919.31
2022-08-03T17:20:21.677Z,97933.72
2022-08-03T17:23:33.831Z,97924.97
2022-08-03T17:26:02.081Z,97920.38
2022-08-03T17:28:51.896Z,97932.25
2022-08-03T17:31:31.212Z,97933.59
2022-08-03T17:34:01.907Z,97934.44
2022-08-03T17:36:54.101Z,97933.13
2022-08-03T17:39:30.882Z,97934.97
2022-08-03T17:42:30.698Z,97932.72
2022-08-03T17:44:57.909Z,97940.84
2022-08-03T17:47:29.291Z,97936.19
2022-08-03T17:50:25.378Z,97938.94
2022-08-03T17:53:07.415Z,97945.03
2022-08-03T17:55:52.006Z,97948.41
2022-08-03T17:59:08.246Z,97955.59
2022-08-03T18:02:30.442Z,97945.78
2022-08-03T18:05:16.558Z,97955.59
2022-08-03T18:07:59.573Z,97946.59
2022-08-03T18:10:35.368Z,97959.16
2022-08-03T18:13:19.471Z,97961.72
2022-08-03T18:16:04.690Z,97968.56
2022-08-03T18:18:44.231Z,97965.66
2022-08-03T18:21:17.068Z,97963.63
2022-08-03T18:23:50.963Z,97966.97
2022-08-03T18:26:19.138Z,97964.28
2022-08-03T18:28:50.658Z,97962.59
2022-08-03T18:31:33.191Z,97954.59
2022-08-03T18:34:18.022Z,97958.19
2022-08-03T18:36:56.485Z,97963.63
2022-08-03T18:39:23.565Z,97971.09
2022-08-03T18:41:51.986Z,97968.88
2022-08-03T18:47:51.673Z,97962.97
2022-08-03T18:50:36.051Z,97969.09
2022-08-03T18:53:20.028Z,97967.41
2022-08-03T18:56:49.559Z,97969.47
2022-08-03T18:59:54.899Z,97972.16
2022-08-03T19:02:41.930Z,97961.56
2022-08-03T19:05:23.540Z,97970.53
2022-08-03T19:08:22.916Z,97968.47
2022-08-03T19:11:01.002Z,97967.69
2022-08-03T19:13:38.271Z,97975.50
2022-08-03T19:16:29.756Z,97974.53
2022-08-03T19:19:00.116Z,97977.75
2022-08-03T19:21:29.913Z,97986.44
2022-08-03T19:24:06.604Z,97979.66
2022-08-03T19:26:41.291Z,97980.66
2022-08-03T19:29:15.064Z,97986.25
2022-08-03T19:31:58.950Z,97988.03
2022-08-03T19:34:29.230Z,97981.09
2022-08-03T19:36:59.807Z,97979.66
2022-08-03T19:39:27.018Z,97993.41
2022-08-03T19:42:06.269Z,97988.75
2022-08-03T19:44:41.136Z,97990.00
2022-08-03T19:47:17.320Z,97990.72
2022-08-03T19:50:06.200Z,97992.09
2022-08-03T19:52:38.792Z,97996.19
2022-08-03T19:55:12.122Z,97985.56
2022-08-03T19:57:45.888Z,97991.69
2022-08-03T20:00:14.232Z,97993.66
2022-08-03T20:02:42.942Z,97986.53
2022-08-03T20:08:02.217Z,97997.97
2022-08-03T20:10:30.310Z,97996.69
2022-08-03T20:12:58.127Z,97992.34
2022-08-03T20:15:31.559Z,97991.38
2022-08-03T20:17:59.988Z,97987.63
2022-08-03T20:20:33.990Z,97990.50
2022-08-03T20:23:07.265Z,97986.63
2022-08-03T20:25:48.567Z,97989.50
2022-08-03T20:28:31.913Z,97991.09
2022-08-03T20:30:59.994Z,97985.84
2022-08-03T20:33:48.802Z,97992.72
2022-08-03T20:36:18.228Z,97994.31
2022-08-03T20:38:51.006Z,97995.44
2022-08-03T20:41:19.950Z,97994.59
2022-08-03T20:43:49.425Z,97994.34
2022-08-03T20:46:35.392Z,97994.94
2022-08-03T20:49:06.868Z,97991.50
2022-08-03T20:51:49.910Z,97986.22
2022-08-03T20:54:29.769Z,97991.28
2022-08-03T20:57:04.354Z,97995.03
2022-08-03T20:59:50.043Z,97997.75
2022-08-03T21:02:28.806Z,97999.94
2022-08-03T21:05:10.257Z,97994.97
2022-08-03T21:08:06.189Z,97994.13
2022-08-03T21:10:37.980Z,97993.53
2022-08-03T21:13:05.489Z,97970.53
2022-08-03T21:13:09.879Z,97994.22
2022-08-03T21:13:17.007Z,97985.88
2022-08-03T21:16:12.867Z,97990.34
2022-08-03T21:18:46.260Z,97993.78
2022-08-03T21:21:17.884Z,97997.25
2022-08-03T21:26:56.895Z,97995.66
2022-08-03T21:29:28.687Z,97995.50
2022-08-03T21:31:59.299Z,97990.00
2022-08-03T21:34:27.660Z,97995.44
2022-08-03T21:36:54.722Z,97995.44
2022-08-03T21:39:22.015Z,97994.34
2022-08-03T21:41:49.283Z,97991.75
2022-08-03T21:44:18.293Z,97991.44
2022-08-03T21:46:57.256Z,97992.03
2022-08-03T21:50:02.621Z,97992.84
2022-08-03T21:52:15.003Z,97993.03
2022-08-03T21:54:44.349Z,97994.97
2022-08-03T21:57:22.237Z,97990.44
2022-08-03T22:00:14.617Z,97997.19
2022-08-03T22:02:54.435Z,98002.50
2022-08-03T22:05:28.836Z,97993.66
2022-08-03T22:08:10.854Z,97997.88
2022-08-03T22:10:38.402Z,97995.16
2022-08-03T22:13:05.578Z,97999.50
2022-08-03T22:15:32.995Z,97993.16
2022-08-03T22:18:03.445Z,97995.88
2022-08-03T22:20:30.845Z,98004.28
2022-08-03T22:23:03.704Z,97998.09
2022-08-03T22:25:34.182Z,98001.09
2022-08-03T22:28:07.201Z,97998.50
2022-08-03T22:30:34.749Z,98011.00
2022-08-03T22:33:04.923Z,98003.38
2022-08-03T22:35:46.463Z,98005.47
2022-08-03T22:38:16.903Z,98002.25
2022-08-03T22:40:46.774Z,98009.00
2022-08-03T22:43:14.135Z,98006.47
2022-08-03T22:46:09.398Z,98005.59
2022-08-03T22:49:10.966Z,98002.81
2022-08-03T22:51:40.848Z,97999.63
2022-08-03T22:54:11.908Z,98009.06
2022-08-03T22:56:39.420Z,98002.84
2022-08-03T22:59:40.698Z,98007.56
2022-08-03T23:02:00.814Z,98019.13
2022-08-03T23:04:32.590Z,98000.00
2022-08-03T23:07:06.946Z,98010.16
2022-08-03T23:09:34.420Z,98012.38
2022-08-03T23:12:05.949Z,98012.66
2022-08-03T23:14:38.646Z,98010.25
2022-08-03T23:17:06.407Z,98009.44
2022-08-03T23:19:41.715Z,98004.41
2022-08-03T23:22:29.482Z,98002.19
2022-08-03T23:24:59.027Z,98003.88
2022-08-03T23:27:27.897Z,98006.44
2022-08-03T23:29:57.599Z,98012.75
2022-08-03T23:32:27.362Z,98009.25
2022-08-03T23:35:19.465Z,98006.53
2022-08-03T23:38:04.812Z,98011.22
2022-08-03T23:40:37.137Z,98010.69
2022-08-03T23:43:05.224Z,98003.44
2022-08-03T23:45:36.012Z,98011.72
2022-08-03T23:48:02.961Z,98007.38
2022-08-03T23:50:47.139Z,98015.94
2022-08-03T23:54:01.879Z,98014.53
2022-08-03T23:57:01.553Z,98010.06
2022-08-03T23:59:43.370Z,98013.88
